Tiempo atmosférico en la estación meteorológica de Castellón de la Plana, Almazora, Castelló/Castellón (35 m.)



Fecha
DESCASC
Temp. máxima en grados centígrados (hora)
DESCASC
Temp. mínima en grados centígrados (hora)
DESCASC
Temp. media en grados centígrados
DESCASC
Racha de viento máxima en m/sg (hora)
DESCASC
Velocidad máxima media en intervalos de 10 minutos(hora)
DESCASC
Precipitaciones diarias en mm
DESCASC
Precipitaciones de 00:00 a 06:00 en mm
DESCASC
Precipitaciones de 06:00 a 12:00 en mm
DESCASC
Precipitaciones de 12:00 a 18:00 en mm
DESCASC
Precipitaciones de 18:00 a 24:00 en mm
DESCASC

Gráficas

Temp. máximas Temp. mínimas Temp. medias Precipitaciones Rachas de viento máximas Velocidades máximas media en intervalos de 10 minutos

Datos horarios

Fecha y hora oficial Temperatura (ºC) Velocidad del viento (km/h) Dirección del viento Racha (km/h) Dirección de racha Precipitación (mm) Presión (hPa) Tendencia (hPa) Humedad (%)
2021-03-01 23:00:00 13.2 8 Norte 20 Norte 0 1020.2 1.1 78
2021-03-01 22:00:00 13.3 12 Nordeste 24 Norte 0 1019.6 0.8 74
2021-03-01 21:00:00 13.3 14 Nordeste 25 Nordeste 0 1019.4 1.1 74
2021-03-01 20:00:00 13.2 11 Nordeste 24 Norte 0 1019.1 1.2 79
2021-03-01 19:00:00 13.3 11 Nordeste 24 Norte 0 1018.8 1 79
2021-03-01 18:00:00 13.8 11 Nordeste 27 Norte 0 1018.3 0.1 71
2021-03-01 17:00:00 14 10 Nordeste 28 Nordeste 0 1017.9 -0.6 74
2021-03-01 16:00:00 14.2 10 Nordeste 27 Nordeste 0 1017.8 -- 70
2021-03-01 15:00:00 14.5 10 Nordeste -- -- -- 1018.2 -- 65
2021-03-01 14:00:00 14.5 11 Nordeste 28 Nordeste 0 1018.5 -- 67
2021-03-01 13:00:00 13.9 9 Nordeste 27 Nordeste 0 1019.1 -- 73
2021-03-01 12:00:00 15.1 11 Nordeste 28 Nordeste 0 1019.4 -- 68
2021-03-01 11:00:00 14.3 11 Nordeste 27 Nordeste 0 1019.3 -- 74
2021-03-01 10:00:00 13.7 11 Nordeste 26 Nordeste 0 1019.1 -- 81
2021-03-01 09:00:00 12.9 11 Nordeste 24 Nordeste 0 1019 -- 82
2021-03-01 08:00:00 12.5 14 Nordeste 24 Nordeste 0 1018.6 -- 83
2021-03-01 07:00:00 12.4 11 Nordeste 18 Nordeste 0 1018.5 -- 85
2021-03-01 06:00:00 12.1 8 Norte 15 Norte 0 1018.5 -- 84
2021-03-01 05:00:00 11.9 8 Norte 15 Nordeste 0 1018.3 -- 82
2021-03-01 04:00:00 11.8 5 Norte 10 Norte 0 1018.3 -- 82
2021-03-01 03:00:00 11.6 7 Norte 15 Norte 0 1018.7 -- 83
2021-03-01 02:00:00 11.6 5 Norte 14 Norte 0 1019 -- 82
2021-03-01 01:00:00 11.6 5 Norte 15 Nordeste 0 1019.1 -- 82
2021-03-01 00:00:00 11.5 6 Norte 12 Nordeste 0 1019.3 -- 83
2021-02-28 23:00:00 11.3 5 Norte 12 Norte 0 1019.3 -- 83
2021-02-28 22:00:00 11.3 6 Norte 10 Norte 0 1019.1 -- 83
2021-02-28 21:00:00 11.8 5 Norte 18 Nordeste 0 1019 -- 84
2021-02-28 20:00:00 12.1 9 Nordeste 18 Nordeste 0 1018.8 -- 85
2021-02-28 19:00:00 12.2 6 Nordeste 15 Nordeste 0 1018.5 -- 84
2021-02-28 18:00:00 13 5 Nordeste 20 Norte 0 1018.2 -- 81
2021-02-28 17:00:00 13.7 6 Este 19 Este 0 1018.2 -- 77
2021-02-28 16:00:00 13.6 7 Este 20 Este 0 1018.1 -- 78
2021-02-28 15:00:00 14.1 9 Este 23 Sudeste 0 1018.3 -- 78
2021-02-28 14:00:00 12.4 6 Nordeste 15 Nordeste 0.4 1018.7 -- 93
2021-02-28 13:00:00 12.4 8 Norte 14 Norte 0.2 1019.4 -- 93
2021-02-28 12:00:00 11.7 2 Norte 8 Norte 1.2 1019.7 -- 95
2021-02-28 11:00:00 11.5 3 Nordeste 9 Norte 1.2 1019.5 -- 96
2021-02-28 10:00:00 11.3 3 Norte 5 Este 2 1019.1 -- 94
2021-02-28 09:00:00 10.8 0 Calma 6 Norte 0 1018.7 -- 92
2021-02-28 08:00:00 10.4 2 Noroeste 5 Noroeste 0 1018.3 -- 90
2021-02-28 07:00:00 10.1 0 Calma 8 Oeste 0 1018.1 -- 89
2021-02-28 06:00:00 9.7 5 Noroeste 9 Noroeste 0 1017.9 -- 90
2021-02-28 05:00:00 10.3 3 Noroeste 7 Noroeste 0 1017.8 -- 88
2021-02-28 04:00:00 10.7 3 Noroeste 8 Noroeste 0 1018.1 -- 87
2021-02-28 03:00:00 10.6 4 Noroeste 11 Noroeste 0 1018.5 -- 88
2021-02-28 02:00:00 10.1 5 Noroeste 10 Noroeste 0 1018.8 -- 89
2021-02-28 01:00:00 10.3 4 Noroeste 10 Noroeste 0 1018.9 -- 88
2021-02-28 00:00:00 10.4 3 Noroeste 6 Noroeste 0 1019 -- 86
2021-02-27 23:00:00 10 3 Noroeste 7 Noroeste 0 1019.1 -- 86
2021-02-27 22:00:00 10.9 4 Noroeste 7 Noroeste 0 1018.8 -- 84
2021-02-27 21:00:00 11.7 0 Calma 3 Nordeste 0 1018.3 -- 84
2021-02-27 20:00:00 12.5 0 Calma 7 Sur 0 1018.2 -- 81
2021-02-27 19:00:00 13.5 5 Sur 11 Sudeste 0 1017.8 -- 77
2021-02-27 18:00:00 15 6 Sudeste 14 Este 0 1017.8 -- 69
2021-02-27 17:00:00 16 7 Este 17 Sudeste 0 1017.9 -- 63
2021-02-27 16:00:00 16.6 9 Sudeste 19 Sudeste 0 1018.1 -- 61
2021-02-27 15:00:00 17.2 9 Sudeste 19 Sudeste 0 1018.7 -- 60
2021-02-27 14:00:00 17 9 Sudeste 21 Este 0 1019.3 -- 59
2021-02-27 13:00:00 16.6 9 Este 17 Este 0 1020.2 -- 62
2021-02-27 12:00:00 17 7 Este 15 Este 0 1020.6 -- 62
2021-02-27 11:00:00 14.3 3 Nordeste 11 Oeste 0 1020.8 -- 66
2021-02-27 10:00:00 11.4 7 Oeste 15 Noroeste 0 1021 -- 76
2021-02-27 09:00:00 8.8 9 Oeste 17 Noroeste 0 1021 -- 80
2021-02-27 08:00:00 8 8 Noroeste 18 Oeste 0 1020.7 -- 85
2021-02-27 07:00:00 7.8 5 Oeste 12 Oeste 0 1020.8 -- 92
2021-02-27 06:00:00 8.2 7 Oeste 13 Oeste 0 1021 -- 93
2021-02-27 05:00:00 8.5 8 Oeste 13 Oeste 0 1021.1 -- 92
2021-02-27 04:00:00 9 8 Oeste 15 Oeste 0 1021.3 -- 91
2021-02-27 03:00:00 9.5 7 Oeste 13 Noroeste 0 1021.7 -- 91
2021-02-27 02:00:00 10.4 4 Oeste 9 Oeste 0 1022.4 -- 89
2021-02-27 01:00:00 11.6 0 Calma 6 Oeste 0 1022.7 -- 85
2021-02-27 00:00:00 12.5 3 Sur 5 Sur 0 1023.1 -- 83
2021-02-26 23:00:00 12.9 2 Sudoeste 3 Sur 0 1023.4 -- 82
2021-02-26 22:00:00 12.9 2 Sur 5 Sur 0 1023.3 -- 80
2021-02-26 21:00:00 13 4 Sudoeste 6 Sur 0 1023 -- 78
2021-02-26 20:00:00 13.1 2 Sudeste 5 Este 0 1023.1 -- 84
2021-02-26 19:00:00 13.4 2 Este 10 Sudeste 0 1023 -- 80
2021-02-26 18:00:00 14.5 8 Este 13 Sudeste 0 1022.9 -- 71
2021-02-26 17:00:00 14.7 8 Este 15 Este 0 1023.2 -- 74
2021-02-26 16:00:00 14.8 8 Este 16 Este 0 1023.4 -- 75
2021-02-26 15:00:00 15.2 7 Este 15 Sudeste 0 1023.9 -- 76
2021-02-26 14:00:00 15.1 7 Este 13 Este 0 1024.6 -- 75
2021-02-26 13:00:00 14.6 5 Este 12 Sudeste 0 1025.4 -- 77
2021-02-26 12:00:00 14.5 4 Este 8 Este 0 1025.7 -- 74
2021-02-26 11:00:00 13.3 2 Noroeste 11 Noroeste 0 1025.7 -- 78
2021-02-26 10:00:00 12.2 6 Oeste 10 Oeste 0 1025.8 -- 80
2021-02-26 09:00:00 11.5 5 Noroeste 12 Oeste 0 1025.4 -- 84
2021-02-26 08:00:00 11.1 6 Oeste 11 Oeste 0 1024.9 -- 90
2021-02-26 07:00:00 10.5 6 Oeste 10 Oeste 0 1024.9 -- 93
2021-02-26 06:00:00 10.1 4 Noroeste 7 Noroeste 0 1024.6 -- 93
2021-02-26 05:00:00 9.9 4 Noroeste 6 Noroeste 0 1024.5 -- 91
2021-02-26 04:00:00 10.5 4 Noroeste 6 Noroeste 0 1024.6 -- 90
2021-02-26 03:00:00 11.5 0 Calma 4 Norte 0 1024.8 -- 90
2021-02-26 02:00:00 12.1 2 Noroeste 5 Noroeste 0 1025.1 -- 90
2021-02-26 01:00:00 12.5 0 Calma 4 Noroeste 0 1025.4 -- 90
2021-02-26 00:00:00 12.7 2 Norte 3 Nordeste 0 1025.5 -- 90
2021-02-25 23:00:00 12.8 2 Norte 4 Este 0 1025.6 -- 91
2021-02-25 22:00:00 12.5 0 Calma 4 Este 0 1025.3 -- 92
2021-02-25 21:00:00 12.8 2 Norte 4 Norte 0 1024.9 -- 90
2021-02-25 20:00:00 13.2 0 Calma 8 Sudeste 0 1024.6 -- 88
2021-02-25 19:00:00 14 4 Sudeste 12 Sudeste 0 1024.1 -- 84
2021-02-25 18:00:00 15.2 8 Sudeste 13 Este 0 1023.9 -- 77
2021-02-25 17:00:00 16.1 9 Sudeste 15 Este 0 1023.7 -- 73
2021-02-25 16:00:00 16.4 9 Sudeste 20 Este 0 1023.7 -- 71
2021-02-25 15:00:00 17.3 9 Sudeste 20 Sur 0 1024 -- 62
2021-02-25 14:00:00 17.5 10 Sudeste 19 Sudeste 0 1024.6 -- 63
2021-02-25 13:00:00 16.8 8 Sudeste 15 Sudeste 0 1025.3 -- 65
2021-02-25 12:00:00 16.5 5 Sudeste 10 Sur 0 1025.8 -- 59
2021-02-25 11:00:00 14.5 2 Sudoeste 11 Norte 0 1026.2 -- 70
2021-02-25 10:00:00 12.7 8 Oeste 13 Noroeste 0 1026 -- 77
2021-02-25 09:00:00 11.1 6 Oeste 11 Oeste 0 1025.7 -- 92
2021-02-25 08:00:00 10.4 4 Noroeste 13 Oeste 0 1025.2 -- 93
2021-02-25 07:00:00 10.5 6 Noroeste 11 Oeste 0 1025 -- 94
2021-02-25 06:00:00 10.6 3 Noroeste 9 Oeste 0 1025.1 -- 96
2021-02-25 05:00:00 11.2 3 Noroeste 7 Oeste 0 1025.1 -- 95
2021-02-25 04:00:00 11.2 3 Norte 4 Noroeste 0 1025.3 -- 96
2021-02-25 03:00:00 11.3 4 Norte 5 Norte 0 1025.7 -- 95
2021-02-25 02:00:00 11.6 0 Calma 3 Sur 0 1026.2 -- 96
2021-02-25 01:00:00 11.4 0 Calma 5 Norte 0 1026.5 -- 94
2021-02-25 00:00:00 12 2 Norte 4 Norte 0 1026.8 -- 94
2021-02-24 23:00:00 12.4 0 Calma 4 Sudeste 0 1026.9 -- 91
2021-02-24 22:00:00 13.2 4 Sudeste 7 Este 0 1026.9 -- 90
2021-02-24 21:00:00 13.3 5 Sudeste 9 Este 0 1026.6 -- 89
2021-02-24 20:00:00 13.5 7 Este 10 Este 0 1026.4 -- 88
2021-02-24 19:00:00 13.8 6 Sudeste 11 Este 0 1026.4 -- 87
2021-02-24 18:00:00 14.3 7 Este 13 Este 0 1026.3 -- 85
2021-02-24 17:00:00 15.5 7 Sudeste 15 Este 0 1026.5 -- 77
2021-02-24 16:00:00 15.6 10 Este 20 Este 0 1027.1 -- 74
2021-02-24 15:00:00 15.5 12 Este 19 Sudeste 0 1027.6 -- 78
2021-02-24 14:00:00 15.6 3 Nordeste 9 Noroeste 0 1028 -- 73
2021-02-24 13:00:00 14.6 3 Sudeste 6 Sudeste 0 1029 -- 85
2021-02-24 12:00:00 13.8 3 Sur 6 Este 0 1029.7 -- 88
2021-02-24 11:00:00 13.6 4 Sudeste 9 Este 0 1029.9 -- 90
2021-02-24 10:00:00 13.6 0 Calma 6 Noroeste 0 1029.9 -- 80
2021-02-24 09:00:00 12.6 4 Noroeste 8 Norte 0 1029.8 -- 83
2021-02-24 08:00:00 12.3 3 Noroeste 8 Noroeste 0 1029.4 -- 85
2021-02-24 07:00:00 12.1 4 Noroeste 7 Noroeste 0 1029.2 -0.1 88
2021-02-24 06:00:00 11.9 5 Noroeste 8 Noroeste 0 1029.1 -0.6 88
2021-02-24 05:00:00 12 4 Sudeste 7 Sudeste 0 1029.2 -- 91
2021-02-24 04:00:00 11.8 3 Noroeste 9 Noroeste 0 1029.3 -- 87
2021-02-24 03:00:00 11.9 8 Oeste 12 Oeste 0 1029.7 -- 87
2021-02-24 02:00:00 11.9 8 Oeste 13 Oeste 0 1030.2 -0.6 88
2021-02-24 01:00:00 11.8 5 Noroeste 13 Noroeste 0 1030.5 -- 89
2021-02-24 00:00:00 11.4 6 Noroeste 12 Oeste 0 1030.9 -- 90
2021-02-23 23:00:00 11.7 4 Noroeste 10 Noroeste 0 1030.8 -- 90
2021-02-23 22:00:00 12.3 5 Noroeste 9 Noroeste 0 1030.5 -- 86
2021-02-23 21:00:00 13.2 4 Nordeste 13 Nordeste 0 1030.3 2.3 90
2021-02-23 20:00:00 13.3 5 Nordeste 16 Este 0 1029.8 -- 91
2021-02-23 19:00:00 13.7 6 Este 17 Este 0 1028.9 -- 85
2021-02-23 18:00:00 14.8 5 Este 17 Este 0 1028 -- 80
2021-02-23 17:00:00 15.8 8 Este 20 Este 0 1027.7 -- 75
2021-02-23 16:00:00 16.8 9 Este 18 Este 0 1027.8 -- 65
2021-02-23 15:00:00 17.4 10 Este 17 Este 0 1027.7 -- 63
2021-02-23 14:00:00 16.9 6 Este 16 Este 0 1027.8 -- 60
2021-02-23 13:00:00 17.1 6 Este 12 Sudeste 0 1028.4 -- 58
2021-02-23 12:00:00 16.6 6 Sur 11 Sudeste 0 1028.7 -- 53
2021-02-23 11:00:00 14 7 Oeste 15 Oeste 0 1028.4 -- 61
2021-02-23 10:00:00 11.5 10 Oeste 19 Oeste 0 1027.8 -- 68
2021-02-23 09:00:00 8.7 8 Oeste 15 Oeste 0 1027.1 -- 79
2021-02-23 08:00:00 7.7 9 Oeste 15 Noroeste 0 1026.2 -- 81
2021-02-23 07:00:00 7.9 10 Oeste 18 Noroeste 0 1025.1 -- 81
2021-02-23 06:00:00 8.1 8 Oeste 13 Oeste 0 1024.6 -- 81
2021-02-23 05:00:00 8.8 6 Noroeste 13 Noroeste 0 1023.9 -- 77
2021-02-23 04:00:00 9.5 4 Noroeste 11 Noroeste 0 1023.3 -- 76
2021-02-23 03:00:00 10.8 5 Noroeste 12 Noroeste 0 1022.6 -- 73
2021-02-23 02:00:00 10.9 4 Noroeste 8 Noroeste 0 1022.1 -- 74
2021-02-23 01:00:00 11.6 5 Noroeste 12 Norte 0 1021.2 -- 74
2021-02-23 00:00:00 12.3 4 Norte 12 Norte 0 1020.6 -- 69
2021-02-22 23:00:00 12.4 7 Nordeste 17 Norte 0 1020 -- 74
2021-02-22 22:00:00 12.7 11 Nordeste 22 Nordeste 0 1019 -- 77
2021-02-22 21:00:00 12.8 14 Nordeste 22 Nordeste 0 1018.2 -- 78
2021-02-22 20:00:00 12.8 10 Nordeste 20 Nordeste 0 1017.2 -- 77
2021-02-22 19:00:00 12.9 8 Nordeste 20 Nordeste 0 1015.7 -- 73
2021-02-22 18:00:00 13.2 7 Este 25 Nordeste 0 1013.9 -- 75
2021-02-22 17:00:00 14.5 10 Este 30 Nordeste 0 1012.7 -- 68
2021-02-22 16:00:00 15.3 10 Este 29 Este 0 1011.7 -- 61
2021-02-22 15:00:00 15 9 Nordeste 34 Este 0 1010.7 -- 64
2021-02-22 14:00:00 16 12 Este 27 Este 0 1010 -- 64
2021-02-22 13:00:00 15.6 8 Este 17 Sudeste 0 1009.9 -- 71
2021-02-22 12:00:00 15.3 6 Sudeste 12 Sudeste 0 1009.6 -- 69
2021-02-22 11:00:00 12.6 4 Sudoeste 9 Noroeste 0 1008.8 -- 80
2021-02-22 10:00:00 11.6 4 Noroeste 12 Oeste 0 1008.3 -- 88
2021-02-22 09:00:00 9.6 6 Noroeste 11 Oeste 0 1007.3 -- 92
2021-02-22 08:00:00 8.7 7 Oeste 12 Oeste 0 1005.9 -- 95
2021-02-22 07:00:00 8.8 6 Oeste 9 Oeste 0 1005.4 2.2 95
2021-02-22 06:00:00 9.2 3 Sudeste 9 Nordeste 0 1004.8 -- 96
2021-02-22 05:00:00 9.6 2 Norte 17 Sudoeste 0 1004.2 -- 95
2021-02-22 04:00:00 9.6 13 Sudoeste 22 Sur 0 1003.2 -- 94
2021-02-22 03:00:00 10.3 4 Noroeste 17 Noroeste 0.2 1002.8 -- 92
2021-02-22 02:00:00 10.9 18 Oeste 61 Oeste 5.4 1003.3 -- 85
2021-02-22 01:00:00 14 13 Nordeste 35 Este 0 1001.4 -- 89
2021-02-22 00:00:00 14.6 21 Nordeste 40 Norte 0 1000.9 -- 84
2021-02-21 23:00:00 14.7 19 Nordeste 33 Nordeste 0 1002.5 -- 83
2021-02-21 22:00:00 14.6 8 Nordeste 27 Nordeste 0 1002.2 1.3 83
2021-02-21 21:00:00 14.6 14 Nordeste 36 Norte 0 1002.2 -- 83
2021-02-21 20:00:00 14.5 16 Nordeste 38 Nordeste 0 1002.4 -- 84
2021-02-21 19:00:00 14.4 21 Nordeste 44 Norte 0 1000.9 -- 84
2021-02-21 18:00:00 14.5 19 Nordeste 36 Nordeste 0 1001.4 -- 83
2021-02-21 17:00:00 14.6 20 Nordeste 40 Nordeste 0 1001.2 -- 82
2021-02-21 16:00:00 14.6 19 Nordeste 43 Nordeste 0 1001.7 -- 82
2021-02-21 15:00:00 14.6 22 Nordeste 43 Nordeste 0 1002.3 -- 82
2021-02-21 14:00:00 15.3 21 Nordeste 38 Nordeste 0 1003.1 -- 76
2021-02-21 13:00:00 15.2 16 Nordeste 32 Nordeste 0 1004.4 -- 74
2021-02-21 12:00:00 14.9 18 Nordeste 38 Norte 0 1004.8 -- 72
2021-02-21 11:00:00 14.4 16 Nordeste 31 Nordeste 0 1005.9 -- 74
2021-02-21 10:00:00 13.7 11 Norte 23 Norte 0 1006.9 -- 75
2021-02-21 09:00:00 12.8 8 Norte 16 Nordeste 0 1006.6 -- 78
2021-02-21 08:00:00 12 6 Nordeste 12 Norte 0 1006.9 -- 81
2021-02-21 07:00:00 11.5 5 Norte 10 Norte 0 1007.4 -- 83
2021-02-21 06:00:00 11.3 7 Norte 12 Norte 0 1008.1 -- 82
2021-02-21 05:00:00 10.7 4 Norte 11 Norte 0 1008.5 -- 83
2021-02-21 04:00:00 11.1 7 Norte 14 Nordeste 0 1009.5 -- 82
2021-02-21 03:00:00 11.2 4 Norte 7 Norte 0 1010.6 -- 80
2021-02-21 02:00:00 10.9 0 Calma 6 Norte 0 1011.2 -- 81
2021-02-21 01:00:00 11.1 4 Norte 7 Nordeste 0 1011.4 -- 81
2021-02-21 00:00:00 11.2 2 Noroeste 6 Noroeste 0 1012.1 -- 82
2021-02-20 23:00:00 11 2 Noroeste 8 Noroeste 0 1012.5 -- 83
2021-02-20 22:00:00 10.6 5 Noroeste 8 Noroeste 0 1012.7 -- 84
2021-02-20 21:00:00 11.3 3 Norte 9 Norte 0 1012.7 -- 80
2021-02-20 20:00:00 11.9 6 Nordeste 15 Nordeste 0 1012.9 -- 79
2021-02-20 19:00:00 11.9 5 Nordeste 9 Este 0 1012.5 -- 83
2021-02-20 18:00:00 13.1 5 Este 14 Este 0 1012.5 -- 77
2021-02-20 17:00:00 14 7 Este 17 Este 0 1012.5 -- 74
2021-02-20 16:00:00 13.9 9 Este 19 Este 0 1012.8 -- 75
2021-02-20 15:00:00 14.7 6 Este 18 Este 0 1013.1 -- 72
2021-02-20 14:00:00 14.9 10 Este 18 Sudeste 0 1013.8 -- 70
2021-02-20 13:00:00 14.8 5 Este 13 Este 0 1014.7 -- 69
2021-02-20 12:00:00 14 3 Noroeste 15 Noroeste 0 1015.2 -- 70
2021-02-20 11:00:00 12.7 6 Noroeste 17 Oeste 0 1015.1 -- 75
2021-02-20 10:00:00 11.1 8 Oeste 17 Oeste 0 1015 -- 81
2021-02-20 09:00:00 10 11 Oeste 19 Oeste 0 1014.8 0.7 85
2021-02-20 08:00:00 9.9 9 Noroeste 19 Oeste 0 1014.2 -- 87
2021-02-20 07:00:00 9.6 11 Oeste 18 Oeste 0 1014.1 -- 87
2021-02-20 06:00:00 9.9 11 Oeste 17 Oeste 0 1014.1 -- 86
2021-02-20 05:00:00 10.2 11 Oeste 16 Oeste 0 1013.9 -- 86
2021-02-20 04:00:00 10.6 6 Oeste 13 Oeste 0 1013.8 -0.9 85
2021-02-20 03:00:00 10.9 5 Noroeste 12 Norte 0 1014.1 -- 87
2021-02-20 02:00:00 11 6 Noroeste 10 Noroeste 0 1014.5 -- 86
2021-02-20 01:00:00 11.1 3 Norte 5 Norte 0 1014.7 -- 87
2021-02-20 00:00:00 11.1 4 Norte 6 Noroeste 0 1015 -- 88
2021-02-19 23:00:00 10.7 2 Norte 5 Norte 0 1015.2 0.4 89
2021-02-19 22:00:00 10.9 3 Noroeste 5 Norte 0 1015.2 -- 86
2021-02-19 21:00:00 11.2 2 Nordeste 7 Este 0 1014.9 -- 87
2021-02-19 20:00:00 11.7 4 Sudeste 8 Este 0 1014.8 -- 85
2021-02-19 19:00:00 11.9 5 Nordeste 8 Este 0 1014.3 -- 84
2021-02-19 18:00:00 12.8 5 Sudeste 14 Este 0 1014.1 -- 81
2021-02-19 17:00:00 13.3 7 Este 17 Sudeste 0 1014.1 -0.9 78
2021-02-19 16:00:00 14 8 Sudeste 17 Este 0 1014.2 -- 71
2021-02-19 15:00:00 14.1 9 Sudeste 17 Sudeste 0 1014.3 -- 72
2021-02-19 14:00:00 13.6 9 Sudeste 18 Este 0 1015 -- 74
2021-02-19 13:00:00 14.1 9 Sudeste 15 Este 0 1015.9 -- 74
2021-02-19 12:00:00 12 3 Sudeste 8 Nordeste 0 1016.2 -- 81
2021-02-19 11:00:00 9.4 5 Norte 8 Nordeste 0 1016.5 -- 92
2021-02-19 10:00:00 8.4 3 Noroeste 7 Noroeste 0 1016.4 -- 98
2021-02-19 09:00:00 7.7 4 Noroeste 8 Norte 0 1016 -- 100
2021-02-19 08:00:00 7.3 3 Noroeste 9 Oeste 0 1015.3 -- 100
2021-02-19 07:00:00 8 7 Oeste 10 Oeste 0 1014.9 -- 100
2021-02-19 06:00:00 7.1 5 Sudoeste 9 Oeste 0 1014.6 -- 95
2021-02-19 05:00:00 7.6 3 Oeste 14 Noroeste 0 1014 -- 94
2021-02-19 04:00:00 8.6 9 Oeste 13 Oeste 0 1013.9 -- 95
2021-02-19 03:00:00 8.9 7 Oeste 13 Oeste 0 1014.1 -- 93
2021-02-19 02:00:00 9.7 5 Oeste 10 Oeste 0 1014.2 -- 91
2021-02-19 01:00:00 9.8 4 Noroeste 8 Noroeste 0 1014.4 -- 91
2021-02-19 00:00:00 10.4 3 Noroeste 7 Noroeste 0 1014.7 -- 89
2021-02-18 23:00:00 10.9 4 Noroeste 9 Noroeste 0 1014.8 -- 87
2021-02-18 22:00:00 11.6 4 Noroeste 7 Noroeste 0 1014.5 -- 84
2021-02-18 21:00:00 11.5 3 Norte 5 Noroeste 0 1014.3 -- 85
2021-02-18 20:00:00 11.5 2 Nordeste 7 Nordeste 0 1014 -- 84
2021-02-18 19:00:00 11.9 3 Este 7 Nordeste 0 1013.2 -- 83
2021-02-18 18:00:00 12.5 4 Este 16 Sudeste 0 1012.6 -- 79
2021-02-18 17:00:00 13.3 5 Este 14 Este 0 1012.7 -- 76
2021-02-18 16:00:00 14 9 Este 17 Sudeste 0 1012.2 -- 73
2021-02-18 15:00:00 14.1 7 Sudeste 20 Sudeste 0 1012.3 -- 71
2021-02-18 14:00:00 14.7 10 Sudeste 20 Sudeste 0 1012.8 -- 69
2021-02-18 13:00:00 14.8 4 Este 11 Sur 0 1013.5 -- 66
2021-02-18 12:00:00 13.1 3 Sudeste 10 Sudeste 0 1014.2 -- 73
2021-02-18 11:00:00 11.9 5 Sudeste 10 Sudeste 0 1014.4 -- 78
2021-02-18 10:00:00 10.6 2 Oeste 12 Oeste 0 1014.4 -- 87
2021-02-18 09:00:00 9.9 8 Oeste 15 Oeste 0 1014.4 -- 91
2021-02-18 08:00:00 9.9 3 Oeste 9 Oeste 0 1013.9 -- 90
2021-02-18 07:00:00 10.1 5 Noroeste 9 Oeste 0 1013.6 -- 89
2021-02-18 06:00:00 10.5 4 Oeste 8 Noroeste 0 1013.7 -- 88
2021-02-18 05:00:00 10.6 3 Noroeste 8 Noroeste 0 1013.7 -- 90
2021-02-18 04:00:00 11.2 2 Noroeste 8 Sudoeste 0 1014.1 -- 90
2021-02-18 03:00:00 11.4 3 Sudeste 8 Este 0 1014.5 -- 92
2021-02-18 02:00:00 11.6 4 Este 7 Este 0 1014.7 -- 92
2021-02-18 01:00:00 11.7 2 Sur 6 Sur 0 1015.1 -- 91
2021-02-18 00:00:00 11.8 3 Sur 9 Sudoeste 0 1015.7 -- 91
2021-02-17 23:00:00 11.8 2 Oeste 13 Oeste 0 1016 -- 91
2021-02-17 22:00:00 12.1 4 Noroeste 9 Norte 0 1016.1 -- 89
2021-02-17 21:00:00 12.4 4 Norte 6 Norte 0 1016.3 -- 87
2021-02-17 20:00:00 12.4 4 Nordeste 10 Sudeste 0 1016.3 -- 87
2021-02-17 19:00:00 12.7 3 Este 10 Este 0 1016 -- 85
2021-02-17 18:00:00 13.1 4 Nordeste 12 Sudeste 0 1016.2 -- 83
2021-02-17 17:00:00 14.1 5 Este 14 Nordeste 0 1016.2 -- 78
2021-02-17 16:00:00 15.4 7 Este 18 Este 0 1016.4 -- 72
2021-02-17 15:00:00 15.7 9 Este 18 Este 0 1016.9 -- 70
2021-02-17 14:00:00 15.3 9 Sudeste 19 Este 0 1017.7 -- 72
2021-02-17 13:00:00 15.7 8 Este 18 Este 0 1018.5 -- 71
2021-02-17 12:00:00 14.7 4 Este 12 Este 0 1019.1 -- 73
2021-02-17 11:00:00 13.1 4 Este 10 Nordeste 0 1019.6 -- 80
2021-02-17 10:00:00 10.6 3 Sudoeste 11 Noroeste 0 1019.6 -- 81
2021-02-17 09:00:00 8 5 Noroeste 10 Noroeste 0 1019.4 -- 87
2021-02-17 08:00:00 7.7 3 Noroeste 9 Noroeste 0 1019 -- 88
2021-02-17 07:00:00 7.3 3 Noroeste 7 Noroeste 0 1018.7 -- 89
2021-02-17 06:00:00 7.4 3 Noroeste 8 Noroeste 0 1018.2 -- 90
2021-02-17 05:00:00 7.5 3 Noroeste 7 Noroeste 0 1017.9 -- 90
2021-02-17 04:00:00 7.7 3 Noroeste 6 Noroeste 0 1017.9 -- 91
2021-02-17 03:00:00 7.7 3 Norte 7 Noroeste 0 1018.1 -- 92
2021-02-17 02:00:00 7.8 5 Noroeste 10 Noroeste 0 1018.2 -- 90
2021-02-17 01:00:00 8.4 5 Noroeste 13 Oeste 0 1018.1 -- 88
2021-02-17 00:00:00 8.5 5 Noroeste 11 Oeste 0 1018.4 -- 88
2021-02-16 23:00:00 8.8 4 Noroeste 8 Oeste 0 1018.7 -- 87
2021-02-16 22:00:00 9.6 2 Noroeste 9 Noroeste 0 1018.8 -- 84
2021-02-16 21:00:00 11 4 Noroeste 5 Noroeste 0 1019 -- 82
2021-02-16 20:00:00 11.7 3 Sur 6 Sudoeste 0 1019 -- 80
2021-02-16 19:00:00 12.6 4 Sur 9 Sudeste 0 1018.9 -- 75
2021-02-16 18:00:00 14.3 5 Sur 10 Sudeste 0 1018.6 -- 65
2021-02-16 17:00:00 15.2 6 Sur 14 Sur 0 1019 -- 60
2021-02-16 16:00:00 16.2 8 Sudeste 16 Sudeste 0 1019.6 -- 58
2021-02-16 15:00:00 15.9 9 Sudeste 17 Este 0 1020.3 -- 57
2021-02-16 14:00:00 16 8 Sudeste 16 Sudeste 0 1021 -- 57
2021-02-16 13:00:00 15.8 10 Sur 17 Sur 0 1021.8 -- 59
2021-02-16 12:00:00 15 7 Sur 16 Sudeste 0 1022.5 -- 63
2021-02-16 11:00:00 12.3 5 Sudoeste 10 Sudoeste 0 1022.7 -- 70
2021-02-16 10:00:00 10.2 8 Oeste 11 Oeste 0 1022.8 -- 82
2021-02-16 09:00:00 8.8 5 Oeste 7 Oeste 0 1023 -- 86
2021-02-16 08:00:00 8.9 4 Sudoeste 9 Oeste 0 1022.9 -- 87
2021-02-16 07:00:00 8.8 6 Sudoeste 12 Sudoeste 0 1023.2 -- 90
2021-02-16 06:00:00 9 6 Sudoeste 14 Sur 0 1023.8 -- 90
2021-02-16 05:00:00 9.6 6 Sur 12 Sudoeste 0 1024.2 -- 88
2021-02-16 04:00:00 10.4 6 Sur 12 Sur 0 1024.7 -- 90
2021-02-16 03:00:00 11.2 6 Sur 9 Sur 0 1025.4 -- 92
2021-02-16 02:00:00 11.9 6 Sur 9 Sur 0 1026 -- 90
2021-02-16 01:00:00 12.3 4 Sur 7 Sur 0 1026.6 -- 90
2021-02-16 00:00:00 12.4 3 Sur 5 Sur 0 1026.9 -- 88
2021-02-15 23:00:00 12.4 3 Sur 7 Sudoeste 0 1027.3 -- 88
2021-02-15 22:00:00 12.5 4 Sur 11 Sur 0 1027.7 -- 86
2021-02-15 21:00:00 12.5 5 Sur 10 Sur 0 1027.7 -- 85
2021-02-15 20:00:00 12.6 7 Sur 18 Sur 0 1027.7 -- 84
2021-02-15 19:00:00 12.8 8 Sur 16 Sudeste 0 1027.8 -- 82
2021-02-15 18:00:00 13.2 8 Sur 18 Sur 0 1027.7 -- 79
2021-02-15 17:00:00 13.4 8 Sur 19 Sudeste 0 1027.8 -- 81
2021-02-15 16:00:00 13.5 9 Sur 17 Sur 0 1028 -- 79
2021-02-15 15:00:00 13.5 10 Sur 20 Sudoeste 0 1028.2 -- 79
2021-02-15 14:00:00 14.3 8 Sudeste 14 Sudeste 0 1028.6 -- 77
2021-02-15 13:00:00 14.2 5 Sur 10 Sudeste 0 1029.1 -- 75
2021-02-15 12:00:00 12.7 4 Norte 10 Noroeste 0 1029.6 -- 82
2021-02-15 11:00:00 11.4 7 Noroeste 14 Noroeste 0 1029.7 -- 89
2021-02-15 10:00:00 10.6 6 Noroeste 13 Noroeste 0 1029.7 -- 94
2021-02-15 09:00:00 10.1 5 Noroeste 10 Noroeste 0.6 1029.6 -- 97
2021-02-15 08:00:00 10 6 Noroeste 13 Noroeste 0.8 1028.9 -- 97
2021-02-15 07:00:00 9.9 5 Norte 17 Norte 0.2 1028.7 -- 97
2021-02-15 06:00:00 9.8 11 Norte 19 Nordeste 0.2 1028.8 -- 96
2021-02-15 05:00:00 10 9 Norte 21 Nordeste 0.2 1029 -- 95
2021-02-15 04:00:00 9.8 4 Norte 9 Noroeste 0.4 1029.3 -- 95
2021-02-15 03:00:00 9.8 3 Noroeste 9 Noroeste 0 1029.6 -- 96
2021-02-15 02:00:00 9.8 5 Noroeste 8 Norte 0.4 1029.8 -- 96
2021-02-15 01:00:00 9.8 4 Noroeste 7 Noroeste 0.6 1029.9 -- 95
2021-02-15 00:00:00 9.9 4 Norte 21 Norte 0.2 1029.9 -- 95
2021-02-14 23:00:00 10 12 Nordeste 28 Norte 0 1029.8 -- 92
2021-02-14 22:00:00 10.4 13 Nordeste 24 Norte 0 1029.6 -- 91
2021-02-14 21:00:00 10.6 10 Nordeste 22 Norte 0 1029.2 -- 93
2021-02-14 20:00:00 11.2 9 Nordeste 21 Nordeste 0 1029.1 -- 90
2021-02-14 19:00:00 11.7 9 Nordeste 26 Nordeste 0 1028.5 1.1 86
2021-02-14 18:00:00 12 11 Nordeste 24 Nordeste 0 1028 0.8 85
2021-02-14 17:00:00 12.3 9 Nordeste 23 Nordeste 0 1027.7 -- 82
2021-02-14 16:00:00 12.2 8 Nordeste 19 Norte 0 1027.4 -- 87
2021-02-14 15:00:00 13 10 Nordeste 24 Este 0 1027.2 -- 80
2021-02-14 14:00:00 14.5 9 Este 23 Este 0 1026.8 -- 75
2021-02-14 13:00:00 15.2 7 Este 21 Este 0 1026.9 -- 69
2021-02-14 12:00:00 15.9 6 Este 14 Norte 0 1027 -- 59
2021-02-14 11:00:00 13.6 4 Nordeste 12 Nordeste 0 1026.7 -- 73
2021-02-14 10:00:00 10.7 6 Oeste 10 Oeste 0 1026.2 -- 69
2021-02-14 09:00:00 8.2 5 Noroeste 17 Oeste 0 1025.2 -- 75
2021-02-14 08:00:00 7.6 8 Oeste 13 Noroeste 0 1024.3 -- 78
2021-02-14 07:00:00 7.9 7 Noroeste 14 Oeste 0 1023.6 -- 77
2021-02-14 06:00:00 8.8 8 Oeste 13 Oeste 0 1022.9 -- 74
2021-02-14 05:00:00 9.1 5 Oeste 14 Oeste 0 1022.4 -- 73
2021-02-14 04:00:00 9.2 8 Oeste 14 Noroeste 0 1021.8 -- 78
2021-02-14 03:00:00 9.6 6 Noroeste 14 Oeste 0 1021.7 -- 79
2021-02-14 02:00:00 9.8 4 Noroeste 12 Oeste 0 1021.4 -- 78
2021-02-14 01:00:00 10.1 4 Noroeste 12 Oeste 0 1021 -- 77
2021-02-14 00:00:00 11 6 Noroeste 12 Noroeste 0 1020.8 -- 80
2021-02-13 23:00:00 12 5 Noroeste 10 Noroeste 0 1020.7 -- 78
2021-02-13 22:00:00 12.9 5 Noroeste 9 Oeste 0 1020.5 -- 75
2021-02-13 21:00:00 13.4 3 Norte 8 Noroeste 0 1020.4 -- 73
2021-02-13 20:00:00 13.4 2 Sudeste 7 Sudeste 0 1019.6 -- 72
2021-02-13 19:00:00 14.2 3 Sudeste 8 Sudeste 0 1018.6 -- 69
2021-02-13 18:00:00 14.6 4 Este 17 Este 0 1018.1 -- 66
2021-02-13 17:00:00 15.3 8 Este 17 Sudeste 0 1017.8 -- 65
2021-02-13 16:00:00 16.1 9 Este 17 Este 0 1017.6 -- 69
2021-02-13 15:00:00 16.9 10 Sudeste 21 Sudeste 0 1017.5 -- 64
2021-02-13 14:00:00 17.8 9 Sudeste 22 Sudeste 0 1017.5 -- 50
2021-02-13 13:00:00 19 11 Sudeste 22 Este 0 1017.8 -- 38
2021-02-13 08:00:00 14.5 9 Sudoeste 21 Oeste 0 1016.3 1.3 45
2021-02-13 07:00:00 14.3 10 Oeste 18 Oeste 0 1015.4 0.5 47
2021-02-13 06:00:00 14.2 7 Oeste 22 Sur 0 1015.3 1 47
2021-02-13 05:00:00 13.7 3 Sur 19 Sur 0 1015 1.7 48
2021-02-13 04:00:00 13.8 4 Sur 15 Noroeste 0 1014.9 1.6 48
2021-02-13 03:00:00 13.8 5 Noroeste 19 Noroeste 0 1014.3 1.4 49
2021-02-13 02:00:00 16.1 16 Noroeste 33 Oeste 0 1013.3 0.6 42
2021-02-13 01:00:00 13 3 Sudoeste 11 Nordeste 0 1013.3 0.8 57
2021-02-13 00:00:00 13.5 3 Nordeste 17 Oeste 0 1012.9 0.8 57
2021-02-12 23:00:00 15.7 5 Oeste 17 Oeste 0 1012.7 0.9 50
2021-02-12 22:00:00 16.1 8 Sudoeste 16 Sudoeste 0 1012.5 1.6 48
2021-02-12 21:00:00 16.1 9 Sur 17 Oeste 0 1012.1 1.8 48
2021-02-12 20:00:00 17.2 11 Oeste 27 Oeste 0 1011.8 1.9 46
2021-02-12 19:00:00 17.7 11 Sudoeste 26 Noroeste 0 1010.9 1.9 45
2021-02-12 18:00:00 18.8 15 Oeste 37 Oeste 0 1010.3 1.7 41
2021-02-12 17:00:00 20 14 Noroeste 34 Noroeste 0 1009.9 1 35
2021-02-12 16:00:00 22 13 Oeste 45 Noroeste 0 1009 0 27
2021-02-12 15:00:00 22.6 19 Noroeste 41 Noroeste 0 1008.6 -0.8 28
2021-02-12 14:00:00 21.8 21 Oeste 39 Oeste 0 1008.9 -0.6 33
2021-02-12 13:00:00 21.5 9 Noroeste 38 Oeste 0 1009 -0.4 33
2021-02-12 12:00:00 18.8 7 Sur 13 Sur 0 1009.4 -0.4 58
2021-02-12 11:00:00 16.6 6 Sur 13 Sur 0 1009.5 -0.3 64
2021-02-12 10:00:00 14.6 3 Noroeste 8 Noroeste 0 1009.4 0 67
2021-02-12 09:00:00 13.6 2 Nordeste 10 Norte 0 1009.8 -- 72
2021-02-12 08:00:00 13.6 5 Norte 15 Sur 0 1009.8 -- 71
2021-02-12 07:00:00 14.7 7 Sudoeste 16 Oeste 0 1009.4 -- 64
2021-02-12 06:00:00 14 5 Noroeste 11 Noroeste 0 1009.9 -- 67
2021-02-12 05:00:00 13.7 5 Noroeste 10 Noroeste 0 1010.1 -- 68
2021-02-12 04:00:00 13.5 5 Noroeste 9 Noroeste 0 1010.4 -- 68
2021-02-12 03:00:00 13.4 3 Norte 9 Sur 0 1011.1 -- 70
2021-02-12 02:00:00 13.7 8 Sudoeste 12 Sudoeste 0 1011.7 -- 69
2021-02-12 01:00:00 13.8 2 Sudoeste 8 Noroeste 0 1011.5 -- 66
2021-02-12 00:00:00 13.7 6 Sudoeste 13 Sudoeste 0 1011.8 -- 69
2021-02-11 23:00:00 14.2 3 Noroeste 11 Oeste 0 1012 -- 65
2021-02-11 22:00:00 13.9 5 Oeste 12 Sur 0 1012.2 -- 68
2021-02-11 21:00:00 13.8 2 Norte 6 Nordeste 0 1011.7 -- 68
2021-02-11 20:00:00 14.4 2 Noroeste 9 Nordeste 0 1011.4 -- 65
2021-02-11 19:00:00 14.7 4 Nordeste 10 Norte 0 1011 -- 63
2021-02-11 18:00:00 15.9 6 Nordeste 15 Este 0 1010.3 -- 63
2021-02-11 17:00:00 19.7 4 Este 13 Este 0 1010.1 -- 44
2021-02-11 16:00:00 20.8 5 Este 16 Este 0 1010.3 -- 37
2021-02-11 15:00:00 20.1 5 Este 13 Sudeste 0 1010.6 -- 34
2021-02-11 14:00:00 19.5 7 Sudeste 17 Este 0 1011.1 -- 31
2021-02-11 13:00:00 19 8 Sudeste 17 Este 0 1011.8 -- 34
2021-02-11 12:00:00 18.7 6 Sudeste 12 Este 0 1012.2 -- 34
2021-02-11 11:00:00 15.4 5 Sur 8 Sur 0 1012.5 -- 41
2021-02-11 10:00:00 12.6 3 Norte 11 Oeste 0 1012.2 -- 52
2021-02-11 09:00:00 10.5 7 Oeste 12 Oeste 0 1011.9 -- 57
2021-02-11 08:00:00 10.3 7 Noroeste 13 Oeste 0 1011.4 -- 57
2021-02-11 07:00:00 9.9 4 Noroeste 18 Noroeste 0 1011.2 -- 57
2021-02-11 06:00:00 9.4 8 Oeste 17 Oeste 0 1011.4 -- 59
2021-02-11 05:00:00 8.8 7 Noroeste 14 Oeste 0 1011.2 -- 61
2021-02-11 04:00:00 10 6 Noroeste 14 Noroeste 0 1011.1 -- 55
2021-02-11 03:00:00 9.3 7 Noroeste 13 Noroeste 0 1011.2 -- 57
2021-02-11 02:00:00 10.2 5 Noroeste 19 Noroeste 0 1011.1 -- 54
2021-02-11 01:00:00 10.3 8 Noroeste 18 Oeste 0 1010.7 -- 54
2021-02-11 00:00:00 10.7 5 Noroeste 14 Noroeste 0 1010.5 -- 53
2021-02-10 23:00:00 10.7 8 Oeste 14 Noroeste 0 1010.2 -- 53
2021-02-10 22:00:00 13.8 6 Oeste 15 Oeste 0 1009.9 -- 42
2021-02-10 21:00:00 13.7 5 Sudeste 15 Noroeste 0 1009.3 -- 41
2021-02-10 20:00:00 14.8 7 Noroeste 16 Noroeste 0 1008.1 -- 37
2021-02-10 19:00:00 16.7 3 Oeste 15 Oeste 0 1007 -- 32
2021-02-10 18:00:00 18.5 6 Noroeste 24 Oeste 0 1005.8 -- 27
2021-02-10 17:00:00 19.2 10 Noroeste 32 Noroeste 0 1004.9 -- 24
2021-02-10 16:00:00 19.6 15 Noroeste 46 Noroeste 0 1004.1 -- 24
2021-02-10 15:00:00 19.6 25 Oeste 46 Noroeste 0 1003.4 -- 23
2021-02-10 14:00:00 19.5 21 Oeste 49 Oeste 0 1002.8 -- 24
2021-02-10 13:00:00 18.7 26 Oeste 57 Oeste 0 1002.4 -- 27
2021-02-10 12:00:00 17.7 22 Oeste 42 Oeste 0 1001.8 -- 36
2021-02-10 11:00:00 15.2 19 Oeste 40 Oeste 0 1000.9 -- 46
2021-02-10 10:00:00 13.4 15 Noroeste 46 Oeste 0 1000 -- 54
2021-02-10 09:00:00 11.9 23 Oeste 45 Noroeste 0 998 -- 63
2021-02-10 08:00:00 14.7 24 Oeste 58 Oeste 0 996.9 -- 49
2021-02-10 07:00:00 14.7 26 Oeste 49 Sudoeste 0 996 -- 48
2021-02-10 06:00:00 14.8 25 Sudoeste 49 Sudoeste 0 996.1 -- 48
2021-02-10 05:00:00 14.5 15 Oeste 33 Oeste 0 996.6 -- 45
2021-02-10 04:00:00 14.6 11 Oeste 28 Oeste 0 997.3 -- 46
2021-02-10 03:00:00 15 9 Sudoeste 34 Noroeste 0 997.8 -- 43
2021-02-10 02:00:00 14.6 10 Sudoeste 22 Oeste 0 997.7 -- 45
2021-02-10 01:00:00 14.1 9 Sudoeste 27 Sur 0 997.3 -- 50
2021-02-10 00:00:00 13.3 15 Sudoeste 30 Sudoeste 0 996.9 -- 63
2021-02-09 23:00:00 14.3 18 Sudoeste 35 Sur 0 996.9 -- 55
2021-02-09 22:00:00 14.9 14 Sudoeste 34 Sudoeste 0 997 -- 51
2021-02-09 21:00:00 16.1 15 Sudoeste 24 Sudoeste 0 997.2 -- 48
2021-02-09 20:00:00 17.1 7 Oeste 26 Sudoeste 0 997.3 -- 52
2021-02-09 19:00:00 16.3 8 Sur 22 Sur 0 996.3 -- 55
2021-02-09 18:00:00 15.5 13 Sur 33 Sur 0 996.3 -- 59
2021-02-09 17:00:00 15.5 18 Sur 40 Sur 0 996.2 -- 56
2021-02-09 16:00:00 15.5 23 Sur 47 Sur 0 996.7 -- 53
2021-02-09 15:00:00 16.7 18 Sudoeste 45 Sur 0 997 -- 52
2021-02-09 14:00:00 16 20 Sudoeste 37 Sur 0 998.7 -- 54
2021-02-09 13:00:00 15.3 18 Sur 32 Sur 0 1000 -- 57
2021-02-09 12:00:00 14.3 21 Sur 38 Sur 0 1001.5 -- 62
2021-02-09 11:00:00 13.4 19 Sudoeste 35 Sudoeste 0 1001.9 -- 57
2021-02-09 10:00:00 12.6 14 Sudoeste 22 Sur 0 1001.9 -- 54
2021-02-09 09:00:00 11.1 11 Sudoeste 17 Sudoeste 0 1001.8 -- 60
2021-02-09 08:00:00 12.1 6 Sur 11 Sur 0 1001.4 -- 56
2021-02-09 07:00:00 13.7 8 Sudoeste 24 Oeste 0 1001.2 -- 49
2021-02-09 06:00:00 13.4 12 Sudoeste 30 Oeste 0 1001.2 -- 50
2021-02-09 05:00:00 13.6 16 Oeste 26 Oeste 0 1000.9 -- 50
2021-02-09 04:00:00 11.2 7 Sudoeste 15 Sudeste 0 1000.8 -- 59
2021-02-09 03:00:00 12 8 Sur 20 Oeste 0 1000.4 -- 55
2021-02-09 02:00:00 13.5 12 Oeste 31 Sudoeste 0 1000.1 -- 50
2021-02-09 01:00:00 13.5 11 Oeste 24 Oeste 0 999.9 -- 49
2021-02-09 00:00:00 13.1 5 Oeste 15 Noroeste 0 999.4 -- 51
2021-02-08 23:00:00 13.5 5 Oeste 28 Oeste 0 999.3 -- 50
2021-02-08 22:00:00 14.6 14 Oeste 32 Oeste 0 998.5 -- 46
2021-02-08 21:00:00 13.8 4 Sudoeste 15 Sudoeste 0 997.8 -- 49
2021-02-08 20:00:00 15.1 12 Oeste 29 Noroeste 0 997.2 -- 43
2021-02-08 19:00:00 15.8 14 Oeste 33 Oeste 0 996.1 -- 41
2021-02-08 18:00:00 17.7 12 Sudoeste 38 Oeste 0 994.6 -- 35
2021-02-08 17:00:00 18 17 Oeste 33 Oeste 0 994.1 -- 33
2021-02-08 16:00:00 19 15 Noroeste 44 Noroeste 0 993.5 -- 31
2021-02-08 15:00:00 19.5 27 Oeste 48 Oeste 0 993 -- 29
2021-02-08 14:00:00 20 15 Noroeste 39 Oeste 0 993.2 -- 28
2021-02-08 13:00:00 18.4 15 Oeste 29 Oeste 0 993.9 -- 36
2021-02-08 12:00:00 16.2 9 Sudoeste -- -- -- 994.5 -- 61
2021-02-08 11:00:00 13.6 8 Sur 23 Sur 0 994.9 -- 66
2021-02-08 10:00:00 13.7 13 Sudoeste 32 Sudoeste 0 995.2 -- 62
2021-02-08 09:00:00 13.2 10 Sudoeste 19 Sudoeste 0 995.5 -- 60
2021-02-08 08:00:00 12.5 0 Calma 12 Sur 0 995.1 -- 58
2021-02-08 07:00:00 12.2 6 Sudoeste 14 Sur 0 995.5 -- 56
2021-02-08 06:00:00 12.5 9 Sur 17 Sur 0 996.1 -- 55
2021-02-08 05:00:00 12.2 10 Sudoeste 17 Sudoeste 0 996.2 -- 57
2021-02-08 04:00:00 12.2 8 Sudoeste 16 Sudoeste 0 996.7 -- 55
2021-02-08 03:00:00 12.7 9 Sudoeste 19 Sudoeste 0 997.4 -- 50
2021-02-08 02:00:00 14.4 10 Sudoeste 22 Oeste 0 997.4 -- 43
2021-02-08 01:00:00 14.2 11 Sudoeste 21 Sur 0 997.6 -- 42
2021-02-08 00:00:00 14.7 13 Sudoeste 26 Sudoeste 0 998 -- 41
2021-02-07 23:00:00 14.8 13 Oeste 28 Oeste 0 998.4 -- 41
2021-02-07 22:00:00 14.6 13 Oeste 25 Oeste 0 998.6 -- 39
2021-02-07 21:00:00 12.2 5 Noroeste 11 Noroeste 0 999 -- 71
2021-02-07 20:00:00 12.6 3 Norte 7 Este 0 998.8 -- 69
2021-02-07 19:00:00 13.3 5 Este 10 Nordeste 0 998.5 -- 65
2021-02-07 18:00:00 15.7 5 Norte 19 Oeste 0 998.1 -- 34
2021-02-07 17:00:00 16.5 10 Oeste 25 Oeste 0 997.9 -- 28
2021-02-07 16:00:00 16.6 8 Sudeste 18 Este 0 997.9 -- 39
2021-02-07 15:00:00 16 12 Sudeste 22 Este 0 997.8 -- 44
2021-02-07 14:00:00 17.5 5 Oeste 28 Sudoeste 0 998.1 -- 27
2021-02-07 13:00:00 16.6 13 Oeste 28 Noroeste 0 998.8 -- 30
2021-02-07 12:00:00 15.4 5 Sudeste 14 Este 0 999.5 -- 38
2021-02-07 11:00:00 13 5 Sudeste 13 Oeste 0 999.5 -- 44
2021-02-07 10:00:00 11.5 7 Oeste 15 Oeste 0 999.2 -- 50
2021-02-07 09:00:00 11.3 8 Noroeste 14 Oeste 0 999.1 -- 51
2021-02-07 08:00:00 11.1 4 Oeste 12 Noroeste 0 998.2 -- 51
2021-02-07 07:00:00 11.3 5 Noroeste 12 Oeste 0 998.1 -- 50
2021-02-07 06:00:00 11.1 8 Noroeste 18 Oeste 0 998.1 -- 52
2021-02-07 05:00:00 10.9 9 Oeste 14 Noroeste 0 998 -- 56
2021-02-07 04:00:00 11.4 10 Oeste 17 Oeste 0 998 -- 57
2021-02-07 03:00:00 11.3 8 Oeste 21 Noroeste 0 998.1 -- 59
2021-02-07 02:00:00 11.4 10 Oeste 17 Oeste 0 997.8 -- 59
2021-02-07 01:00:00 12.4 3 Noroeste 13 Noroeste 0 997.4 -- 55
2021-02-07 00:00:00 11.7 4 Noroeste 10 Noroeste 0 997.1 -- 60
2021-02-06 23:00:00 12.5 5 Noroeste 10 Oeste 0 997 -- 62
2021-02-06 22:00:00 13.9 7 Norte 18 Nordeste 0 996.7 -- 65
2021-02-06 21:00:00 13.9 5 Norte 18 Sudoeste 0 996.3 -- 51
2021-02-06 20:00:00 15.2 5 Sudoeste 19 Sudoeste 0 995.8 -- 46
2021-02-06 19:00:00 16.7 12 Sudoeste 22 Sudoeste 0 995.1 -- 43
2021-02-06 18:00:00 18.5 13 Sudoeste 31 Sudoeste 0 994.9 -- 38
2021-02-06 17:00:00 19.8 18 Oeste 36 Sudoeste 0 994.4 -- 35
2021-02-06 16:00:00 20.7 17 Sudoeste 32 Sudoeste 0 994.1 -- 35
2021-02-06 15:00:00 20.9 18 Sudoeste 36 Sudoeste 0 994.2 -- 35
2021-02-06 14:00:00 19.5 13 Sur 23 Sur 0 994.7 -- 51
2021-02-06 13:00:00 19.9 6 Sudoeste 13 Sudoeste 0 995.6 -- 46
2021-02-06 12:00:00 17.3 5 Sur 12 Sur 0 996.5 -- 57
2021-02-06 11:00:00 14.4 3 Sur 8 Sur 0 996.6 -- 67
2021-02-06 10:00:00 13 5 Sudoeste 8 Sudoeste 0 996.5 -- 70
2021-02-06 09:00:00 11 4 Noroeste 12 Noroeste 0 996.5 -- 81
2021-02-06 08:00:00 10.3 0 Calma 8 Oeste 0 996.1 -- 82
2021-02-06 07:00:00 10.8 4 Noroeste 12 Noroeste 0 996 -- 81
2021-02-06 06:00:00 11.7 2 Oeste 11 Oeste 0 995.9 -- 81
2021-02-06 05:00:00 12 4 Sur 10 Oeste 0 995.7 -- 80
2021-02-06 04:00:00 13.1 4 Oeste 16 Sudoeste 0 996.7 -- 76
2021-02-06 03:00:00 13.3 3 Sur 12 Nordeste 0 996.8 -- 75
2021-02-06 02:00:00 13.6 6 Norte 20 Norte 0 996.8 -- 75
2021-02-06 01:00:00 13.1 9 Norte 22 Oeste 0 998.3 -- 77
2021-02-06 00:00:00 13.7 6 Noroeste 22 Norte 0 999 -- 78
2021-02-05 23:00:00 12.6 5 Noroeste 13 Nordeste 0 998.4 -- 82
2021-02-05 22:00:00 12.4 5 Norte 10 Norte 0 999.3 -- 85
2021-02-05 21:00:00 12.2 0 Calma 7 Sudoeste 0 1000.3 -- 87
2021-02-05 20:00:00 12.5 3 Nordeste 15 Nordeste 0 1000.3 -- 88
2021-02-05 19:00:00 12.6 6 Nordeste 23 Nordeste 0 1000.6 -- 89
2021-02-05 18:00:00 13.4 8 Nordeste 22 Este 0 1000.8 -- 85
2021-02-05 17:00:00 13.9 7 Este 19 Nordeste 0 1000.9 -- 82
2021-02-05 16:00:00 14.3 8 Nordeste 23 Nordeste 0 1001.2 -- 80
2021-02-05 15:00:00 14.5 8 Este 21 Nordeste 0 1001.7 -- 76
2021-02-05 14:00:00 15.2 5 Este 15 Norte 0 1002.9 -- 72
2021-02-05 13:00:00 14.2 8 Norte 16 Norte 0 1004.1 -- 73
2021-02-05 12:00:00 13.8 2 Nordeste 10 Norte 0 1005.4 -- 75
2021-02-05 11:00:00 13.4 5 Norte 11 Norte 0 1005.2 -- 77
2021-02-05 10:00:00 12.6 5 Noroeste 11 Noroeste 0 1005.5 -- 82
2021-02-05 09:00:00 12.3 5 Noroeste 8 Noroeste 0 1005.3 -- 84
2021-02-05 08:00:00 12.2 3 Norte 5 Noroeste 0 1005.1 -- 85
2021-02-05 07:00:00 12.1 4 Noroeste 10 Norte 0 1004.7 -- 87
2021-02-05 06:00:00 12.1 3 Nordeste 11 Este 0 1005 -- 87
2021-02-05 05:00:00 12.1 2 Noroeste 15 Norte 0 1005.6 -- 87
2021-02-05 04:00:00 12.1 8 Norte 20 Norte 0 1005.9 -- 87
2021-02-05 03:00:00 12 4 Nordeste 17 Este 0 1006.9 -- 89
2021-02-05 02:00:00 12.1 6 Este 13 Este 0 1006.4 -- 87
2021-02-05 01:00:00 12.2 4 Este 9 Este 0 1006.5 -- 88
2021-02-05 00:00:00 12.2 3 Nordeste 8 Nordeste 0 1006.9 -- 88
2021-02-04 23:00:00 12.3 4 Este 8 Este 0 1006.8 -- 88
2021-02-04 22:00:00 12.5 6 Este 10 Norte 0 1006.7 -- 86
2021-02-04 21:00:00 12.6 5 Norte 11 Norte 0 1006.3 -- 85
2021-02-04 20:00:00 12.6 5 Nordeste 10 Nordeste 0 1006.4 -- 86
2021-02-04 19:00:00 12.6 5 Nordeste 9 Nordeste 0 1006.1 -- 87
2021-02-04 18:00:00 12.7 4 Nordeste 11 Nordeste 0 1005.8 -- 86
2021-02-04 17:00:00 12.9 6 Nordeste 21 Este 0 1005.6 -- 84
2021-02-04 16:00:00 13.9 6 Este 18 Este 0 1005.6 -- 81
2021-02-04 15:00:00 14.3 7 Este 19 Este 0 1005.7 -- 78
2021-02-04 14:00:00 15.2 10 Este 23 Este 0 1006.3 -- 76
2021-02-04 13:00:00 16 6 Este 20 Sudeste 0 1006.6 -- 71
2021-02-04 12:00:00 16.3 5 Este 14 Este 0 1007.6 -- 60
2021-02-04 11:00:00 13.9 4 Sudeste 9 Sudeste 0 1008.4 -- 75
2021-02-04 10:00:00 12 2 Norte 9 Oeste 0 1007.8 -- 73
2021-02-04 09:00:00 10.4 6 Oeste 14 Oeste 0 1007.8 -- 77
2021-02-04 08:00:00 10 4 Noroeste 10 Noroeste 0 1007.4 -- 79
2021-02-04 07:00:00 10 5 Noroeste 9 Noroeste 0 1007.2 -- 80
2021-02-04 06:00:00 10.2 5 Noroeste 9 Noroeste 0 1006.9 -- 82
2021-02-04 05:00:00 11 6 Noroeste 14 Noroeste 0 1007 -- 78
2021-02-04 04:00:00 12 9 Noroeste 18 Oeste 0 1007.1 -- 75
2021-02-04 03:00:00 11.9 10 Oeste 18 Noroeste 0 1007.4 -- 76
2021-02-04 02:00:00 11.9 8 Oeste 13 Oeste 0 1007.7 -- 78
2021-02-04 01:00:00 12.1 7 Oeste 15 Oeste 0 1008.5 -- 78
2021-02-04 00:00:00 12 4 Noroeste 11 Oeste 0 1008.1 -- 77
2021-02-03 23:00:00 12.3 4 Noroeste 8 Noroeste 0 1008.2 -- 76
2021-02-03 22:00:00 12.6 0 Calma 9 Noroeste 0 1008.2 -- 76
2021-02-03 21:00:00 13 4 Noroeste 9 Noroeste 0 1008.2 -- 73
2021-02-03 20:00:00 13.9 4 Norte 8 Oeste 0 1008.2 -- 68
2021-02-03 19:00:00 14.8 5 Norte 8 Noroeste 0 1007.6 -- 63
2021-02-03 18:00:00 15.2 3 Nordeste 7 Nordeste 0 1007.4 -- 64
2021-02-03 17:00:00 15.6 3 Este 10 Este 0 1007 -- 62
2021-02-03 16:00:00 16.6 6 Este 12 Este 0 1006.9 -- 57
2021-02-03 15:00:00 17.6 6 Este 11 Este 0 1006.8 -- 52
2021-02-03 14:00:00 17.4 4 Nordeste 9 Sudeste 0 1007.1 -- 53
2021-02-03 13:00:00 16.5 6 Este 12 Este 0 1007.6 -- 61
2021-02-03 12:00:00 16.4 3 Este 6 Nordeste 0 1008 -- 57
2021-02-03 11:00:00 14.6 2 Nordeste 7 Noroeste 0 1008 -- 61
2021-02-03 10:00:00 11.7 4 Noroeste 12 Noroeste 0 1007.7 -- 72
2021-02-03 09:00:00 10.2 6 Noroeste 12 Noroeste 0 1007.3 -- 76
2021-02-03 08:00:00 9.7 5 Noroeste 10 Noroeste 0 1006.7 -- 78
2021-02-03 07:00:00 10.6 6 Oeste 14 Oeste 0 1006.6 -- 75
2021-02-03 06:00:00 10.6 5 Sudoeste 15 Noroeste 0 1006.4 -- 75
2021-02-03 05:00:00 10.8 8 Oeste 14 Oeste 0 1006.4 -- 75
2021-02-03 04:00:00 10.7 7 Noroeste 12 Oeste 0 1006.9 -- 75
2021-02-03 03:00:00 10.1 4 Noroeste 13 Oeste 0 1007.5 -- 78
2021-02-03 02:00:00 11.2 8 Noroeste 13 Oeste 0 1007.6 -- 73
2021-02-03 01:00:00 11.5 5 Noroeste 9 Noroeste 0 1007.8 -- 72
2021-02-03 00:00:00 12.1 6 Noroeste 15 Oeste 0 1007.7 -- 69
2021-02-02 23:00:00 12.4 4 Noroeste 13 Noroeste 0 1007.8 -- 69
2021-02-02 22:00:00 12.9 5 Noroeste 13 Oeste 0 1007.8 -- 68
2021-02-02 21:00:00 13.7 5 Noroeste 10 Noroeste 0 1008 -- 64
2021-02-02 20:00:00 16.1 3 Oeste 6 Noroeste 0 1007.8 -- 55
2021-02-02 19:00:00 17.8 0 Calma 10 Sudeste 0 1007.5 -- 51
2021-02-02 18:00:00 19.8 5 Nordeste 9 Norte 0 1007.6 -- 41
2021-02-02 17:00:00 20.5 6 Nordeste 14 Sudeste 0 1007.6 -- 40
2021-02-02 16:00:00 21.3 8 Este 15 Sudeste 0 1007.8 -- 38
2021-02-02 15:00:00 21.5 8 Este 20 Nordeste 0 1007.9 -- 40
2021-02-02 14:00:00 21.8 6 Este 15 Este 0 1008.4 -- 37
2021-02-02 13:00:00 20.6 6 Nordeste 17 Nordeste 0 1008.9 -- 42
2021-02-02 12:00:00 18.9 11 Nordeste 21 Nordeste 0 1009.7 -- 46
2021-02-02 11:00:00 18.5 5 Noroeste 19 Oeste 0 1009.4 -- 46
2021-02-02 10:00:00 15.2 6 Noroeste 13 Noroeste 0 1009.1 -- 57
2021-02-02 09:00:00 16 7 Noroeste 20 Noroeste 0 1009 -- 53
2021-02-02 08:00:00 13.8 8 Oeste 15 Oeste 0 1009.2 -- 58
2021-02-02 07:00:00 14.1 6 Oeste 15 Oeste 0 1009.1 -- 57
2021-02-02 06:00:00 13.7 7 Noroeste 18 Noroeste 0 1008.9 -- 58
2021-02-02 05:00:00 13.7 10 Oeste 19 Oeste 0 1008.5 -- 59
2021-02-02 04:00:00 15 8 Noroeste 22 Oeste 0 1008.1 -- 52
2021-02-02 03:00:00 15.5 13 Oeste 21 Oeste 0 1008.2 -- 52
2021-02-02 02:00:00 14.6 6 Noroeste 16 Noroeste 0 1007.9 -- 53
2021-02-02 01:00:00 15.6 4 Oeste 12 Noroeste 0 1007.8 -- 51
2021-02-02 00:00:00 17.7 6 Noroeste 20 Sudoeste 0 1007.5 -- 45
2021-02-01 23:00:00 19.2 11 Oeste 23 Sudoeste 0 1006.8 -- 40
2021-02-01 22:00:00 19.8 12 Oeste 28 Sudoeste 0 1006.6 -- 40
2021-02-01 21:00:00 20.4 13 Oeste 27 Oeste 0 1006.2 -- 38
2021-02-01 20:00:00 21 11 Oeste 26 Noroeste 0 1005.9 -- 37
2021-02-01 19:00:00 21.6 14 Oeste 27 Oeste 0 1005.1 -- 35
2021-02-01 18:00:00 22.7 14 Oeste 37 Oeste 0 1004.1 -- 33
2021-02-01 17:00:00 24.3 18 Oeste 32 Noroeste 0 1003.1 -- 28
2021-02-01 16:00:00 24.8 17 Noroeste 36 Noroeste 0 1002.6 -- 26
2021-02-01 15:00:00 24.8 21 Oeste 40 Noroeste 0 1002.3 -- 22
2021-02-01 14:00:00 24.5 20 Oeste 41 Noroeste 0 1001.5 -- 23
2021-02-01 13:00:00 23.4 26 Oeste 48 Oeste 0 1001.6 -- 23
2021-02-01 12:00:00 22 21 Oeste 49 Oeste 0 1002 -- 26
2021-02-01 11:00:00 19.9 23 Oeste 45 Oeste 0 1001.9 -- 29
2021-02-01 10:00:00 18.3 23 Oeste 49 Oeste 0 1002 -- 34
2021-02-01 09:00:00 17.7 27 Oeste 64 Oeste 0 1001.4 -- 35
2021-02-01 08:00:00 17.6 30 Oeste 55 Oeste 0 1000.7 -- 35
2021-02-01 07:00:00 17.8 26 Oeste 54 Oeste 0 1000.5 -- 35
2021-02-01 06:00:00 18.3 27 Oeste 64 Oeste 0 1000.4 -- 35
2021-02-01 05:00:00 18.7 32 Oeste 61 Oeste 0 999.9 -- 34
2021-02-01 04:00:00 18.8 24 Oeste 41 Noroeste 0 999.9 -- 36
2021-02-01 03:00:00 19.2 19 Oeste 35 Oeste 0 1000.3 -- 35
2021-02-01 02:00:00 20 27 Oeste 71 Oeste 0 999.9 -- 33
2021-02-01 01:00:00 19.9 20 Oeste 46 Oeste 0 999.8 -- 34
2021-02-01 00:00:00 20.1 8 Oeste 45 Noroeste 0 1000.7 -- 38
2021-01-31 23:00:00 20.2 23 Oeste 45 Oeste 0 999.6 -- 38
2021-01-31 22:00:00 17.3 14 Sur 26 Sur 0 999.9 -- 49
2021-01-31 21:00:00 19.9 14 Oeste 44 Oeste 0 999.9 -- 39
2021-01-31 20:00:00 20.5 26 Oeste 52 Oeste 0 999.9 -- 39
2021-01-31 19:00:00 19.3 12 Oeste 30 Noroeste 0 999.6 -- 41
2021-01-31 18:00:00 19.1 3 Este 14 Nordeste 0 999.4 -- 36
2021-01-31 17:00:00 21.3 10 Nordeste 31 Noroeste 0 999.5 -- 35
2021-01-31 16:00:00 22.6 14 Oeste 28 Oeste 0 999.6 -- 35
2021-01-31 15:00:00 21.5 9 Norte 23 Noroeste 0 1000.3 -- 30
2021-01-31 14:00:00 21.4 11 Noroeste 28 Oeste 0 1001 -- 30
2021-01-31 13:00:00 20.4 6 Noroeste 21 Oeste 0 1002 -- 28
2021-01-31 12:00:00 19 5 Oeste 17 Sur 0 1002.6 -- 31
2021-01-31 11:00:00 16.7 14 Sur 24 Sur 0 1002.8 -- 38
2021-01-31 10:00:00 15.4 6 Sudoeste 22 Oeste 0 1002.6 -- 40
2021-01-31 09:00:00 14.9 14 Sudoeste 25 Sudoeste 0 1002.5 -- 39
2021-01-31 08:00:00 14.4 9 Oeste 22 Oeste 0 1002.1 -- 40
2021-01-31 07:00:00 14.3 10 Oeste 37 Oeste 0 1001.8 -- 43
2021-01-31 06:00:00 14.7 23 Oeste 36 Noroeste 0 1001.1 -- 41
2021-01-31 05:00:00 14.9 14 Noroeste 41 Oeste 0 1001.5 -- 39
2021-01-31 04:00:00 14.7 14 Noroeste 38 Oeste 0 1001.6 -- 39
2021-01-31 03:00:00 15 18 Noroeste 40 Oeste 0 1001.8 -- 37
2021-01-31 02:00:00 14.8 12 Noroeste 40 Oeste 0 1002 -- 37
2021-01-31 01:00:00 15 13 Oeste 41 Oeste 0 1001.8 -- 38
2021-01-31 00:00:00 15.3 15 Oeste 40 Noroeste 0 1001.5 -- 39